Time,TemperatureF,DewpointF,PressureIn,WindDirection,WindDirectionDegrees,WindSpeedMPH,WindSpeedGustMPH,Humidity,HourlyPrecipIn,Conditions,Clouds,dailyrainin,SoftwareType,DateUTC
2013-11-14 00:00:00,23.9,19.5,30.42,N/A,-327680,0.0,0.0,83,0.00,,,0.00,Wunderground PWS Mod,2013-11-14 05:00:00,
2013-11-14 00:04:00,24.2,19.8,30.43,NNW,338,0.0,8.0,83,0.00,,,0.00,Wunderground PWS Mod,2013-11-14 05:04:00,
2013-11-14 00:05:00,23.9,19.5,30.42,N/A,-327680,0.0,0.0,83,0.00,,,0.00,Wunderground PWS Mod,2013-11-14 05:05:00,
2013-11-14 00:09:00,24.4,20.0,30.43,NNW,338,0.0,8.0,83,0.00,,,0.00,Wunderground PWS Mod,2013-11-14 05:09:00,
2013-11-14 00:10:00,23.9,19.5,30.42,N/A,-327680,0.0,0.0,83,0.00,,,0.00,Wunderground PWS Mod,2013-11-14 05:10:00,
2013-11-14 00:14:00,24.4,20.0,30.43,NNW,338,0.0,8.0,83,0.00,,,0.00,Wunderground PWS Mod,2013-11-14 05:14:00,
2013-11-14 00:15:00,23.9,19.5,30.42,N/A,-327680,0.0,0.0,83,0.00,,,0.00,Wunderground PWS Mod,2013-11-14 05:15:00,
2013-11-14 00:19:00,24.4,20.0,30.43,NNW,338,0.0,8.0,83,0.00,,,0.00,Wunderground PWS Mod,2013-11-14 05:19:00,
2013-11-14 00:20:00,23.9,19.5,30.42,N/A,-327680,0.0,0.0,83,0.00,,,0.00,Wunderground PWS Mod,2013-11-14 05:20:00,
2013-11-14 00:24:00,24.2,19.8,30.43,NNW,338,0.0,8.0,83,0.00,,,0.00,Wunderground PWS Mod,2013-11-14 05:24:00,
2013-11-14 00:25:00,23.9,19.5,30.42,N/A,-327680,0.0,0.0,83,0.00,,,0.00,Wunderground PWS Mod,2013-11-14 05:25:00,
2013-11-14 00:30:00,23.9,19.5,30.42,N/A,-327680,0.0,0.0,83,0.00,,,0.00,Wunderground PWS Mod,2013-11-14 05:30:00,
2013-11-14 00:34:00,23.9,19.5,30.42,NNW,338,0.0,8.0,83,0.00,,,0.00,Wunderground PWS Mod,2013-11-14 05:34:00,
2013-11-14 00:35:00,23.9,19.5,30.42,N/A,-327680,0.0,0.0,83,0.00,,,0.00,Wunderground PWS Mod,2013-11-14 05:35:00,
2013-11-14 00:40:00,23.9,19.5,30.42,N/A,-327680,0.0,0.0,83,0.00,,,0.00,Wunderground PWS Mod,2013-11-14 05:40:00,
2013-11-14 00:44:00,23.8,19.7,30.42,NNW,338,0.0,8.0,84,0.00,,,0.00,Wunderground PWS Mod,2013-11-14 05:44:00,
2013-11-14 00:45:00,23.5,19.4,30.42,N/A,-327680,0.0,0.0,84,0.00,,,0.00,Wunderground PWS Mod,2013-11-14 05:45:00,
2013-11-14 00:50:00,23.5,19.4,30.42,N/A,-327680,0.0,0.0,84,0.00,,,0.00,Wunderground PWS Mod,2013-11-14 05:50:00,
2013-11-14 00:54:00,23.6,19.5,30.41,NNW,338,0.0,8.0,84,0.00,,,0.00,Wunderground PWS Mod,2013-11-14 05:54:00,
2013-11-14 00:55:00,23.5,19.4,30.42,N/A,-327680,0.0,0.0,84,0.00,,,0.00,Wunderground PWS Mod,2013-11-14 05:55:00,
2013-11-14 01:00:00,23.5,19.4,30.42,N/A,-327680,0.0,0.0,84,0.00,,,0.00,Wunderground PWS Mod,2013-11-14 06:00:00,
2013-11-14 01:04:00,23.5,19.4,30.41,NNW,338,0.0,8.0,84,0.00,,,0.00,Wunderground PWS Mod,2013-11-14 06:04:00,
2013-11-14 01:05:00,23.5,19.4,30.42,N/A,-327680,0.0,0.0,84,0.00,,,0.00,Wunderground PWS Mod,2013-11-14 06:05:00,
2013-11-14 01:10:00,23.5,19.4,30.42,N/A,-327680,0.0,0.0,84,0.00,,,0.00,Wunderground PWS Mod,2013-11-14 06:10:00,
2013-11-14 01:14:00,23.0,19.2,30.41,NNW,338,0.0,8.0,85,0.00,,,0.00,Wunderground PWS Mod,2013-11-14 06:14:00,
2013-11-14 01:15:00,22.5,18.9,30.40,N/A,-327680,0.0,0.0,86,0.00,,,0.00,Wunderground PWS Mod,2013-11-14 06:15:00,
2013-11-14 01:20:00,22.5,18.9,30.40,N/A,-327680,0.0,0.0,86,0.00,,,0.00,Wunderground PWS Mod,2013-11-14 06:20:00,
2013-11-14 01:24:00,22.9,19.3,30.41,NNW,338,0.0,8.0,86,0.00,,,0.00,Wunderground PWS Mod,2013-11-14 06:24:00,
2013-11-14 01:25:00,22.5,18.9,30.40,N/A,-327680,0.0,0.0,86,0.00,,,0.00,Wunderground PWS Mod,2013-11-14 06:25:00,
2013-11-14 01:29:00,22.7,19.1,30.41,NNW,338,0.0,8.0,86,0.00,,,0.00,Wunderground PWS Mod,2013-11-14 06:29:00,
2013-11-14 01:30:00,22.5,18.9,30.40,N/A,-327680,0.0,0.0,86,0.00,,,0.00,Wunderground PWS Mod,2013-11-14 06:30:00,
2013-11-14 01:35:00,22.5,18.9,30.40,N/A,-327680,0.0,0.0,86,0.00,,,0.00,Wunderground PWS Mod,2013-11-14 06:35:00,
2013-11-14 01:39:00,22.4,18.8,30.40,NNW,338,0.0,8.0,86,0.00,,,0.00,Wunderground PWS Mod,2013-11-14 06:39:00,
2013-11-14 01:40:00,22.5,18.9,30.40,N/A,-327680,0.0,0.0,86,0.00,,,0.00,Wunderground PWS Mod,2013-11-14 06:40:00,
2013-11-14 01:45:00,22.5,19.2,30.40,N/A,-327680,0.0,0.0,87,0.00,,,0.00,Wunderground PWS Mod,2013-11-14 06:45:00,
2013-11-14 01:49:00,22.5,19.2,30.40,NNW,338,0.0,8.0,87,0.00,,,0.00,Wunderground PWS Mod,2013-11-14 06:49:00,
2013-11-14 01:50:00,22.5,19.2,30.40,N/A,-327680,0.0,0.0,87,0.00,,,0.00,Wunderground PWS Mod,2013-11-14 06:50:00,
2013-11-14 01:55:00,22.5,19.2,30.40,N/A,-327680,0.0,0.0,87,0.00,,,0.00,Wunderground PWS Mod,2013-11-14 06:55:00,
2013-11-14 01:59:00,22.5,19.2,30.40,NNW,338,0.0,8.0,87,0.00,,,0.00,Wunderground PWS Mod,2013-11-14 06:59:00,
2013-11-14 02:00:00,22.5,19.2,30.40,N/A,-327680,0.0,0.0,87,0.00,,,0.00,Wunderground PWS Mod,2013-11-14 07:00:00,
2013-11-14 02:05:00,22.5,19.2,30.40,N/A,-327680,0.0,0.0,87,0.00,,,0.00,Wunderground PWS Mod,2013-11-14 07:05:00,
2013-11-14 02:09:00,22.4,19.1,30.40,NNW,338,0.0,8.0,87,0.00,,,0.00,Wunderground PWS Mod,2013-11-14 07:09:00,
2013-11-14 02:10:00,22.5,19.2,30.40,N/A,-327680,0.0,0.0,87,0.00,,,0.00,Wunderground PWS Mod,2013-11-14 07:10:00,
2013-11-14 02:15:00,22.2,19.2,30.40,N/A,-327680,0.0,0.0,88,0.00,,,0.00,Wunderground PWS Mod,2013-11-14 07:15:00,
2013-11-14 02:19:00,22.5,19.2,30.40,NNW,338,0.0,8.0,87,0.00,,,0.00,Wunderground PWS Mod,2013-11-14 07:19:00,
2013-11-14 02:20:00,22.2,19.2,30.40,N/A,-327680,0.0,0.0,88,0.00,,,0.00,Wunderground PWS Mod,2013-11-14 07:20:00,
2013-11-14 02:25:00,22.2,19.2,30.40,N/A,-327680,0.0,0.0,88,0.00,,,0.00,Wunderground PWS Mod,2013-11-14 07:25:00,
2013-11-14 02:29:00,22.4,19.4,30.40,NNW,338,0.0,8.0,88,0.00,,,0.00,Wunderground PWS Mod,2013-11-14 07:29:00,
2013-11-14 02:30:00,22.2,19.2,30.40,N/A,-327680,0.0,0.0,88,0.00,,,0.00,Wunderground PWS Mod,2013-11-14 07:30:00,
2013-11-14 02:35:00,22.2,19.2,30.40,N/A,-327680,0.0,0.0,88,0.00,,,0.00,Wunderground PWS Mod,2013-11-14 07:35:00,
2013-11-14 02:39:00,22.2,19.2,30.40,NNW,338,0.0,8.0,88,0.00,,,0.00,Wunderground PWS Mod,2013-11-14 07:39:00,
2013-11-14 02:40:00,22.2,19.2,30.40,N/A,-327680,0.0,0.0,88,0.00,,,0.00,Wunderground PWS Mod,2013-11-14 07:40:00,
2013-11-14 02:45:00,21.8,18.8,30.41,N/A,-327680,0.0,0.0,88,0.00,,,0.00,Wunderground PWS Mod,2013-11-14 07:45:00,
2013-11-14 02:49:00,22.1,19.1,30.40,NNW,338,0.0,8.0,88,0.00,,,0.00,Wunderground PWS Mod,2013-11-14 07:49:00,
2013-11-14 02:50:00,21.8,18.8,30.41,N/A,-327680,0.0,0.0,88,0.00,,,0.00,Wunderground PWS Mod,2013-11-14 07:50:00,
2013-11-14 02:55:00,21.8,18.8,30.41,N/A,-327680,0.0,0.0,88,0.00,,,0.00,Wunderground PWS Mod,2013-11-14 07:55:00,
2013-11-14 02:59:00,21.8,18.8,30.40,NNW,338,0.0,8.0,88,0.00,,,0.00,Wunderground PWS Mod,2013-11-14 07:59:00,
2013-11-14 03:00:00,21.8,18.8,30.41,N/A,-327680,0.0,0.0,88,0.00,,,0.00,Wunderground PWS Mod,2013-11-14 08:00:00,
2013-11-14 03:05:00,21.8,18.8,30.41,N/A,-327680,0.0,0.0,88,0.00,,,0.00,Wunderground PWS Mod,2013-11-14 08:05:00,
2013-11-14 03:09:00,21.8,19.1,30.41,NNW,338,0.0,8.0,89,0.00,,,0.00,Wunderground PWS Mod,2013-11-14 08:09:00,
2013-11-14 03:10:00,21.8,18.8,30.41,N/A,-327680,0.0,0.0,88,0.00,,,0.00,Wunderground PWS Mod,2013-11-14 08:10:00,
2013-11-14 03:15:00,21.9,19.4,30.40,N/A,-327680,0.0,0.0,90,0.00,,,0.00,Wunderground PWS Mod,2013-11-14 08:15:00,
2013-11-14 03:19:00,21.8,19.3,30.41,NNW,338,0.0,8.0,90,0.00,,,0.00,Wunderground PWS Mod,2013-11-14 08:19:00,
2013-11-14 03:20:00,21.9,19.4,30.40,N/A,-327680,0.0,0.0,90,0.00,,,0.00,Wunderground PWS Mod,2013-11-14 08:20:00,
2013-11-14 03:25:00,21.9,19.4,30.40,N/A,-327680,0.0,0.0,90,0.00,,,0.00,Wunderground PWS Mod,2013-11-14 08:25:00,
2013-11-14 03:29:00,21.6,18.9,30.41,NNW,338,0.0,8.0,89,0.00,,,0.00,Wunderground PWS Mod,2013-11-14 08:29:00,
2013-11-14 03:30:00,21.9,19.4,30.40,N/A,-327680,0.0,0.0,90,0.00,,,0.00,Wunderground PWS Mod,2013-11-14 08:30:00,
2013-11-14 03:35:00,21.9,19.4,30.40,N/A,-327680,0.0,0.0,90,0.00,,,0.00,Wunderground PWS Mod,2013-11-14 08:35:00,
2013-11-14 03:39:00,22.2,19.7,30.40,NNW,338,0.0,8.0,90,0.00,,,0.00,Wunderground PWS Mod,2013-11-14 08:39:00,
2013-11-14 03:40:00,21.9,19.4,30.40,N/A,-327680,0.0,0.0,90,0.00,,,0.00,Wunderground PWS Mod,2013-11-14 08:40:00,
2013-11-14 03:44:00,22.2,19.7,30.40,NNW,338,0.0,8.0,90,0.00,,,0.00,Wunderground PWS Mod,2013-11-14 08:44:00,
2013-11-14 03:45:00,22.5,20.0,30.40,N/A,-327680,0.0,0.0,90,0.00,,,0.00,Wunderground PWS Mod,2013-11-14 08:45:00,
2013-11-14 03:50:00,22.5,20.0,30.40,N/A,-327680,0.0,0.0,90,0.00,,,0.00,Wunderground PWS Mod,2013-11-14 08:50:00,
2013-11-14 03:54:00,22.4,20.2,30.40,NNW,338,0.0,8.0,91,0.00,,,0.00,Wunderground PWS Mod,2013-11-14 08:54:00,
2013-11-14 03:55:00,22.5,20.0,30.40,N/A,-327680,0.0,0.0,90,0.00,,,0.00,Wunderground PWS Mod,2013-11-14 08:55:00,
2013-11-14 04:00:00,22.5,20.0,30.40,N/A,-327680,0.0,0.0,90,0.00,,,0.00,Wunderground PWS Mod,2013-11-14 09:00:00,
2013-11-14 04:04:00,22.5,20.0,30.40,NNW,338,0.0,8.0,90,0.00,,,0.00,Wunderground PWS Mod,2013-11-14 09:04:00,
2013-11-14 04:05:00,22.5,20.0,30.40,N/A,-327680,0.0,0.0,90,0.00,,,0.00,Wunderground PWS Mod,2013-11-14 09:05:00,
2013-11-14 04:10:00,22.5,20.0,30.40,N/A,-327680,0.0,0.0,90,0.00,,,0.00,Wunderground PWS Mod,2013-11-14 09:10:00,
2013-11-14 04:14:00,22.2,19.7,30.40,NNW,338,0.0,8.0,90,0.00,,,0.00,Wunderground PWS Mod,2013-11-14 09:14:00,
2013-11-14 04:15:00,21.6,19.1,30.40,SSE,150,0.0,2.0,90,0.00,,,0.00,Wunderground PWS Mod,2013-11-14 09:15:00,
2013-11-14 04:20:00,21.6,19.1,30.40,SSE,150,0.0,2.0,90,0.00,,,0.00,Wunderground PWS Mod,2013-11-14 09:20:00,
2013-11-14 04:24:00,21.9,19.4,30.40,NNW,338,0.0,8.0,90,0.00,,,0.00,Wunderground PWS Mod,2013-11-14 09:24:00,
2013-11-14 04:25:00,21.6,19.1,30.40,SSE,150,0.0,2.0,90,0.00,,,0.00,Wunderground PWS Mod,2013-11-14 09:25:00,
2013-11-14 04:30:00,21.6,19.1,30.40,SSE,150,0.0,2.0,90,0.00,,,0.00,Wunderground PWS Mod,2013-11-14 09:30:00,
2013-11-14 04:34:00,21.6,19.1,30.40,NNW,338,0.0,8.0,90,0.00,,,0.00,Wunderground PWS Mod,2013-11-14 09:34:00,
2013-11-14 04:35:00,21.6,19.1,30.40,SSE,150,0.0,2.0,90,0.00,,,0.00,Wunderground PWS Mod,2013-11-14 09:35:00,
2013-11-14 04:40:00,21.6,19.1,30.40,SSE,150,0.0,2.0,90,0.00,,,0.00,Wunderground PWS Mod,2013-11-14 09:40:00,
2013-11-14 04:44:00,20.6,18.1,30.40,NNW,338,0.0,8.0,90,0.00,,,0.00,Wunderground PWS Mod,2013-11-14 09:44:00,
2013-11-14 04:45:00,20.2,18.2,30.40,N/A,-327680,0.0,0.0,92,0.00,,,0.00,Wunderground PWS Mod,2013-11-14 09:45:00,
2013-11-14 04:50:00,20.2,18.2,30.40,N/A,-327680,0.0,0.0,92,0.00,,,0.00,Wunderground PWS Mod,2013-11-14 09:50:00,
2013-11-14 04:54:00,20.3,18.1,30.39,NNW,338,0.0,8.0,91,0.00,,,0.00,Wunderground PWS Mod,2013-11-14 09:54:00,
2013-11-14 04:55:00,20.2,18.2,30.40,N/A,-327680,0.0,0.0,92,0.00,,,0.00,Wunderground PWS Mod,2013-11-14 09:55:00,
2013-11-14 05:00:00,20.2,18.2,30.40,N/A,-327680,0.0,0.0,92,0.00,,,0.00,Wunderground PWS Mod,2013-11-14 10:00:00,
2013-11-14 05:04:00,20.2,18.2,30.40,NNW,338,0.0,8.0,92,0.00,,,0.00,Wunderground PWS Mod,2013-11-14 10:04:00,
2013-11-14 05:05:00,20.2,18.2,30.40,N/A,-327680,0.0,0.0,92,0.00,,,0.00,Wunderground PWS Mod,2013-11-14 10:05:00,
2013-11-14 05:10:00,20.2,18.2,30.40,N/A,-327680,0.0,0.0,92,0.00,,,0.00,Wunderground PWS Mod,2013-11-14 10:10:00,
2013-11-14 05:14:00,20.2,18.2,30.40,NNW,338,0.0,8.0,92,0.00,,,0.00,Wunderground PWS Mod,2013-11-14 10:14:00,
2013-11-14 05:15:00,20.6,18.9,30.40,N/A,-327680,0.0,0.0,93,0.00,,,0.00,Wunderground PWS Mod,2013-11-14 10:15:00,
2013-11-14 05:20:00,20.6,18.9,30.40,N/A,-327680,0.0,0.0,93,0.00,,,0.00,Wunderground PWS Mod,2013-11-14 10:20:00,
2013-11-14 05:24:00,20.3,18.3,30.40,NNW,338,0.0,8.0,92,0.00,,,0.00,Wunderground PWS Mod,2013-11-14 10:24:00,
2013-11-14 05:25:00,20.6,18.9,30.40,N/A,-327680,0.0,0.0,93,0.00,,,0.00,Wunderground PWS Mod,2013-11-14 10:25:00,
2013-11-14 05:30:00,20.6,18.9,30.40,N/A,-327680,0.0,0.0,93,0.00,,,0.00,Wunderground PWS Mod,2013-11-14 10:30:00,
2013-11-14 05:34:00,20.6,18.6,30.40,NNW,338,0.0,8.0,92,0.00,,,0.00,Wunderground PWS Mod,2013-11-14 10:34:00,
2013-11-14 05:35:00,20.6,18.9,30.40,N/A,-327680,0.0,0.0,93,0.00,,,0.00,Wunderground PWS Mod,2013-11-14 10:35:00,
2013-11-14 05:40:00,20.6,18.9,30.40,N/A,-327680,0.0,0.0,93,0.00,,,0.00,Wunderground PWS Mod,2013-11-14 10:40:00,
2013-11-14 05:44:00,21.0,19.0,30.40,NNW,338,0.0,8.0,92,0.00,,,0.00,Wunderground PWS Mod,2013-11-14 10:44:00,
2013-11-14 05:45:00,20.8,18.8,30.41,N/A,-327680,0.0,0.0,92,0.00,,,0.00,Wunderground PWS Mod,2013-11-14 10:45:00,
2013-11-14 05:50:00,20.8,18.8,30.41,N/A,-327680,0.0,0.0,92,0.00,,,0.00,Wunderground PWS Mod,2013-11-14 10:50:00,
2013-11-14 05:54:00,21.0,19.3,30.40,NNW,338,0.0,8.0,93,0.00,,,0.00,Wunderground PWS Mod,2013-11-14 10:54:00,
2013-11-14 05:55:00,20.8,18.8,30.41,N/A,-327680,0.0,0.0,92,0.00,,,0.00,Wunderground PWS Mod,2013-11-14 10:55:00,
2013-11-14 06:00:00,20.8,18.8,30.41,N/A,-327680,0.0,0.0,92,0.00,,,0.00,Wunderground PWS Mod,2013-11-14 11:00:00,
2013-11-14 06:04:00,20.8,18.8,30.41,NNW,338,0.0,8.0,92,0.00,,,0.00,Wunderground PWS Mod,2013-11-14 11:04:00,
2013-11-14 06:05:00,20.8,18.8,30.41,N/A,-327680,0.0,0.0,92,0.00,,,0.00,Wunderground PWS Mod,2013-11-14 11:05:00,
2013-11-14 06:09:00,20.8,19.1,30.41,NNW,338,0.0,8.0,93,0.00,,,0.00,Wunderground PWS Mod,2013-11-14 11:09:00,
2013-11-14 06:10:00,20.8,18.8,30.41,N/A,-327680,0.0,0.0,92,0.00,,,0.00,Wunderground PWS Mod,2013-11-14 11:10:00,
2013-11-14 06:15:00,20.5,18.8,30.42,SSE,150,0.0,1.0,93,0.00,,,0.00,Wunderground PWS Mod,2013-11-14 11:15:00,
2013-11-14 06:19:00,21.1,19.4,30.41,NNW,338,0.0,8.0,93,0.00,,,0.00,Wunderground PWS Mod,2013-11-14 11:19:00,
2013-11-14 06:20:00,20.5,18.8,30.42,SSE,150,0.0,1.0,93,0.00,,,0.00,Wunderground PWS Mod,2013-11-14 11:20:00,
2013-11-14 06:25:00,20.5,18.8,30.42,SSE,150,0.0,1.0,93,0.00,,,0.00,Wunderground PWS Mod,2013-11-14 11:25:00,
2013-11-14 06:29:00,20.6,18.9,30.41,NNW,338,0.0,8.0,93,0.00,,,0.00,Wunderground PWS Mod,2013-11-14 11:29:00,
2013-11-14 06:30:00,20.5,18.8,30.42,SSE,150,0.0,1.0,93,0.00,,,0.00,Wunderground PWS Mod,2013-11-14 11:30:00,
2013-11-14 06:35:00,20.5,18.8,30.42,SSE,150,0.0,1.0,93,0.00,,,0.00,Wunderground PWS Mod,2013-11-14 11:35:00,
2013-11-14 06:39:00,20.2,18.5,30.42,NNW,338,0.0,8.0,93,0.00,,,0.00,Wunderground PWS Mod,2013-11-14 11:39:00,
2013-11-14 06:40:00,20.5,18.8,30.42,SSE,150,0.0,1.0,93,0.00,,,0.00,Wunderground PWS Mod,2013-11-14 11:40:00,
2013-11-14 06:44:00,20.0,18.3,30.42,NNW,338,0.0,8.0,93,0.00,,,0.00,Wunderground PWS Mod,2013-11-14 11:44:00,
2013-11-14 06:45:00,20.3,18.6,30.43,N/A,-327680,0.0,0.0,93,0.00,,,0.00,Wunderground PWS Mod,2013-11-14 11:45:00,
2013-11-14 06:50:00,20.3,18.6,30.43,N/A,-327680,0.0,0.0,93,0.00,,,0.00,Wunderground PWS Mod,2013-11-14 11:50:00,
2013-11-14 06:54:00,20.2,18.5,30.43,NNW,338,0.0,8.0,93,0.00,,,0.00,Wunderground PWS Mod,2013-11-14 11:54:00,
2013-11-14 06:55:00,20.3,18.6,30.43,N/A,-327680,0.0,0.0,93,0.00,,,0.00,Wunderground PWS Mod,2013-11-14 11:55:00,
2013-11-14 06:59:00,20.3,18.6,30.43,NNW,338,0.0,8.0,93,0.00,,,0.00,Wunderground PWS Mod,2013-11-14 11:59:00,
2013-11-14 07:00:00,20.3,18.6,30.43,N/A,-327680,0.0,0.0,93,0.00,,,0.00,Wunderground PWS Mod,2013-11-14 12:00:00,
2013-11-14 07:05:00,20.3,18.6,30.43,N/A,-327680,0.0,0.0,93,0.00,,,0.00,Wunderground PWS Mod,2013-11-14 12:05:00,
2013-11-14 07:09:00,20.5,19.0,30.43,NNW,338,0.0,8.0,94,0.00,,,0.00,Wunderground PWS Mod,2013-11-14 12:09:00,
2013-11-14 07:10:00,20.3,18.6,30.43,N/A,-327680,0.0,0.0,93,0.00,,,0.00,Wunderground PWS Mod,2013-11-14 12:10:00,
2013-11-14 07:15:00,22.7,21.5,30.43,N/A,-327680,0.0,0.0,95,0.00,,,0.00,Wunderground PWS Mod,2013-11-14 12:15:00,
2013-11-14 07:19:00,21.1,19.6,30.43,NNW,338,0.0,8.0,94,0.00,,,0.00,Wunderground PWS Mod,2013-11-14 12:19:00,
2013-11-14 07:20:00,22.7,21.5,30.43,N/A,-327680,0.0,0.0,95,0.00,,,0.00,Wunderground PWS Mod,2013-11-14 12:20:00,
2013-11-14 07:25:00,22.7,21.5,30.43,N/A,-327680,0.0,0.0,95,0.00,,,0.00,Wunderground PWS Mod,2013-11-14 12:25:00,
2013-11-14 07:29:00,22.1,20.9,30.43,North,360,0.0,8.0,95,0.00,,,0.00,Wunderground PWS Mod,2013-11-14 12:29:00,
2013-11-14 07:30:00,22.7,21.5,30.43,N/A,-327680,0.0,0.0,95,0.00,,,0.00,Wunderground PWS Mod,2013-11-14 12:30:00,
2013-11-14 07:35:00,22.7,21.5,30.43,N/A,-327680,0.0,0.0,95,0.00,,,0.00,Wunderground PWS Mod,2013-11-14 12:35:00,
2013-11-14 07:39:00,23.6,22.4,30.43,North,360,0.0,8.0,95,0.00,,,0.00,Wunderground PWS Mod,2013-11-14 12:39:00,
2013-11-14 07:40:00,22.7,21.5,30.43,N/A,-327680,0.0,0.0,95,0.00,,,0.00,Wunderground PWS Mod,2013-11-14 12:40:00,
2013-11-14 07:44:00,24.4,23.2,30.43,North,360,1.0,8.0,95,0.00,,,0.00,Wunderground PWS Mod,2013-11-14 12:44:00,
2013-11-14 07:45:00,27.3,25.3,30.43,North,0,0.0,2.0,92,0.00,,,0.00,Wunderground PWS Mod,2013-11-14 12:45:00,
2013-11-14 07:50:00,27.3,25.3,30.43,North,0,0.0,2.0,92,0.00,,,0.00,Wunderground PWS Mod,2013-11-14 12:50:00,
2013-11-14 07:54:00,25.8,24.3,30.43,North,360,0.0,8.0,94,0.00,,,0.00,Wunderground PWS Mod,2013-11-14 12:54:00,
2013-11-14 07:55:00,27.3,25.3,30.43,North,0,0.0,2.0,92,0.00,,,0.00,Wunderground PWS Mod,2013-11-14 12:55:00,
2013-11-14 08:00:00,27.3,25.3,30.43,North,0,0.0,2.0,92,0.00,,,0.00,Wunderground PWS Mod,2013-11-14 13:00:00,
2013-11-14 08:04:00,27.5,25.5,30.43,North,360,0.0,8.0,92,0.00,,,0.00,Wunderground PWS Mod,2013-11-14 13:04:00,
2013-11-14 08:05:00,27.3,25.3,30.43,North,0,0.0,2.0,92,0.00,,,0.00,Wunderground PWS Mod,2013-11-14 13:05:00,
2013-11-14 08:10:00,27.3,25.3,30.43,North,0,0.0,2.0,92,0.00,,,0.00,Wunderground PWS Mod,2013-11-14 13:10:00,
2013-11-14 08:14:00,29.1,26.3,30.43,North,5,1.0,8.0,89,0.00,,,0.00,Wunderground PWS Mod,2013-11-14 13:14:00,
2013-11-14 08:15:00,31.5,25.1,30.43,SE,140,0.0,3.0,77,0.00,,,0.00,Wunderground PWS Mod,2013-11-14 13:15:00,
2013-11-14 08:20:00,31.5,25.1,30.43,SE,140,0.0,3.0,77,0.00,,,0.00,Wunderground PWS Mod,2013-11-14 13:20:00,
2013-11-14 08:24:00,30.1,25.6,30.43,NW,320,0.0,8.0,83,0.00,,,0.00,Wunderground PWS Mod,2013-11-14 13:24:00,
2013-11-14 08:25:00,31.5,25.1,30.43,SE,140,0.0,3.0,77,0.00,,,0.00,Wunderground PWS Mod,2013-11-14 13:25:00,
2013-11-14 08:30:00,31.5,25.1,30.43,SE,140,0.0,3.0,77,0.00,,,0.00,Wunderground PWS Mod,2013-11-14 13:30:00,
2013-11-14 08:34:00,31.8,25.4,30.43,NW,319,1.0,8.0,77,0.00,,,0.00,Wunderground PWS Mod,2013-11-14 13:34:00,
2013-11-14 08:35:00,31.5,25.1,30.43,SE,140,0.0,3.0,77,0.00,,,0.00,Wunderground PWS Mod,2013-11-14 13:35:00,
2013-11-14 08:40:00,31.5,25.1,30.43,SE,140,0.0,3.0,77,0.00,,,0.00,Wunderground PWS Mod,2013-11-14 13:40:00,
2013-11-14 08:44:00,33.1,25.7,30.43,SSW,213,0.0,8.0,74,0.00,,,0.00,Wunderground PWS Mod,2013-11-14 13:44:00,
2013-11-14 08:45:00,36.0,27.5,30.43,East,100,1.0,5.0,71,0.00,,,0.00,Wunderground PWS Mod,2013-11-14 13:45:00,
2013-11-14 08:50:00,36.0,27.5,30.43,East,100,1.0,5.0,71,0.00,,,0.00,Wunderground PWS Mod,2013-11-14 13:50:00,
2013-11-14 08:54:00,34.7,26.6,30.43,SW,223,2.0,8.0,72,0.00,,,0.00,Wunderground PWS Mod,2013-11-14 13:54:00,
2013-11-14 08:55:00,36.0,27.5,30.43,East,100,1.0,5.0,71,0.00,,,0.00,Wunderground PWS Mod,2013-11-14 13:55:00,
2013-11-14 09:00:00,36.0,27.5,30.43,East,100,1.0,5.0,71,0.00,,,0.00,Wunderground PWS Mod,2013-11-14 14:00:00,
2013-11-14 09:04:00,36.2,26.6,30.43,SW,230,4.0,8.0,68,0.00,,,0.00,Wunderground PWS Mod,2013-11-14 14:04:00,
2013-11-14 09:05:00,36.0,27.5,30.43,East,100,1.0,5.0,71,0.00,,,0.00,Wunderground PWS Mod,2013-11-14 14:05:00,
2013-11-14 09:10:00,36.0,27.5,30.43,East,100,1.0,5.0,71,0.00,,,0.00,Wunderground PWS Mod,2013-11-14 14:10:00,
2013-11-14 09:14:00,37.6,26.1,30.43,WSW,254,2.0,8.0,63,0.00,,,0.00,Wunderground PWS Mod,2013-11-14 14:14:00,
2013-11-14 09:15:00,40.2,26.6,30.43,ESE,110,3.0,9.0,58,0.00,,,0.00,Wunderground PWS Mod,2013-11-14 14:15:00,
2013-11-14 09:20:00,40.2,26.6,30.43,ESE,110,3.0,9.0,58,0.00,,,0.00,Wunderground PWS Mod,2013-11-14 14:20:00,
2013-11-14 09:24:00,38.8,27.3,30.43,WSW,250,0.0,8.0,63,0.00,,,0.00,Wunderground PWS Mod,2013-11-14 14:24:00,
2013-11-14 09:25:00,40.2,26.6,30.43,ESE,110,3.0,9.0,58,0.00,,,0.00,Wunderground PWS Mod,2013-11-14 14:25:00,
2013-11-14 09:30:00,40.2,26.6,30.43,ESE,110,3.0,9.0,58,0.00,,,0.00,Wunderground PWS Mod,2013-11-14 14:30:00,
2013-11-14 09:34:00,40.3,26.7,30.43,SSW,213,3.0,8.0,58,0.00,,,0.00,Wunderground PWS Mod,2013-11-14 14:34:00,
2013-11-14 09:35:00,40.2,26.6,30.43,ESE,110,3.0,9.0,58,0.00,,,0.00,Wunderground PWS Mod,2013-11-14 14:35:00,
2013-11-14 09:40:00,40.2,26.6,30.43,ESE,110,3.0,9.0,58,0.00,,,0.00,Wunderground PWS Mod,2013-11-14 14:40:00,
2013-11-14 09:44:00,41.3,27.6,30.43,SW,231,4.0,8.0,58,0.00,,,0.00,Wunderground PWS Mod,2013-11-14 14:44:00,
2013-11-14 09:45:00,42.8,24.9,30.43,East,100,4.0,10.0,49,0.00,,,0.00,Wunderground PWS Mod,2013-11-14 14:45:00,
2013-11-14 09:49:00,41.6,25.7,30.43,SW,219,6.0,8.0,53,0.00,,,0.00,Wunderground PWS Mod,2013-11-14 14:49:00,
2013-11-14 09:50:00,42.8,24.9,30.43,East,100,4.0,10.0,49,0.00,,,0.00,Wunderground PWS Mod,2013-11-14 14:50:00,
2013-11-14 09:55:00,42.8,24.9,30.43,East,100,4.0,10.0,49,0.00,,,0.00,Wunderground PWS Mod,2013-11-14 14:55:00,
2013-11-14 09:59:00,42.3,26.4,30.43,WSW,252,9.0,9.0,53,0.00,,,0.00,Wunderground PWS Mod,2013-11-14 14:59:00,
2013-11-14 10:00:00,42.8,24.9,30.43,East,100,4.0,10.0,49,0.00,,,0.00,Wunderground PWS Mod,2013-11-14 15:00:00,
2013-11-14 10:04:00,42.8,24.4,30.43,SW,232,3.0,9.0,48,0.00,,,0.00,Wunderground PWS Mod,2013-11-14 15:04:00,
2013-11-14 10:05:00,42.8,24.9,30.43,East,100,4.0,10.0,49,0.00,,,0.00,Wunderground PWS Mod,2013-11-14 15:05:00,
2013-11-14 10:10:00,42.8,24.9,30.43,East,100,4.0,10.0,49,0.00,,,0.00,Wunderground PWS Mod,2013-11-14 15:10:00,
2013-11-14 10:14:00,43.3,24.9,30.43,WSW,240,6.0,9.0,48,0.00,,,0.00,Wunderground PWS Mod,2013-11-14 15:14:00,
2013-11-14 10:15:00,44.9,25.9,30.43,East,100,4.0,10.0,47,0.00,,,0.00,Wunderground PWS Mod,2013-11-14 15:15:00,
2013-11-14 10:19:00,43.8,26.8,30.43,SW,227,5.0,9.0,51,0.00,,,0.00,Wunderground PWS Mod,2013-11-14 15:19:00,
2013-11-14 10:20:00,44.9,25.9,30.43,East,100,4.0,10.0,47,0.00,,,0.00,Wunderground PWS Mod,2013-11-14 15:20:00,
2013-11-14 10:25:00,44.9,25.9,30.43,East,100,4.0,10.0,47,0.00,,,0.00,Wunderground PWS Mod,2013-11-14 15:25:00,
2013-11-14 10:29:00,44.8,26.3,30.43,SW,232,5.0,9.0,48,0.00,,,0.00,Wunderground PWS Mod,2013-11-14 15:29:00,
2013-11-14 10:30:00,44.9,25.9,30.43,East,100,4.0,10.0,47,0.00,,,0.00,Wunderground PWS Mod,2013-11-14 15:30:00,
2013-11-14 10:35:00,44.9,25.9,30.43,East,100,4.0,10.0,47,0.00,,,0.00,Wunderground PWS Mod,2013-11-14 15:35:00,
2013-11-14 10:39:00,45.7,26.6,30.43,WSW,245,5.0,9.0,47,0.00,,,0.00,Wunderground PWS Mod,2013-11-14 15:39:00,
2013-11-14 10:40:00,44.9,25.9,30.43,East,100,4.0,10.0,47,0.00,,,0.00,Wunderground PWS Mod,2013-11-14 15:40:00,
2013-11-14 10:45:00,47.6,23.2,30.42,East,90,4.0,14.0,38,0.00,,,0.00,Wunderground PWS Mod,2013-11-14 15:45:00,
2013-11-14 10:49:00,46.2,26.0,30.43,WSW,246,3.0,9.0,45,0.00,,,0.00,Wunderground PWS Mod,2013-11-14 15:49:00,
2013-11-14 10:50:00,47.6,23.2,30.42,East,90,4.0,14.0,38,0.00,,,0.00,Wunderground PWS Mod,2013-11-14 15:50:00,
2013-11-14 10:54:00,46.8,24.9,30.43,SSE,167,4.0,9.0,42,0.00,,,0.00,Wunderground PWS Mod,2013-11-14 15:54:00,
2013-11-14 10:55:00,47.6,23.2,30.42,East,90,4.0,14.0,38,0.00,,,0.00,Wunderground PWS Mod,2013-11-14 15:55:00,
2013-11-14 11:00:00,47.6,23.2,30.42,East,90,4.0,14.0,38,0.00,,,0.00,Wunderground PWS Mod,2013-11-14 16:00:00,
2013-11-14 11:04:00,47.6,22.6,30.42,SW,235,7.0,8.0,37,0.00,,,0.00,Wunderground PWS Mod,2013-11-14 16:04:00,
2013-11-14 11:05:00,47.6,23.2,30.42,East,90,4.0,14.0,38,0.00,,,0.00,Wunderground PWS Mod,2013-11-14 16:05:00,
2013-11-14 11:10:00,47.6,23.2,30.42,East,90,4.0,14.0,38,0.00,,,0.00,Wunderground PWS Mod,2013-11-14 16:10:00,
2013-11-14 11:14:00,47.7,22.7,30.42,SW,236,5.0,8.0,37,0.00,,,0.00,Wunderground PWS Mod,2013-11-14 16:14:00,
2013-11-14 11:15:00,49.2,24.6,30.41,East,100,5.0,12.0,38,0.00,,,0.00,Wunderground PWS Mod,2013-11-14 16:15:00,
2013-11-14 11:20:00,49.2,24.6,30.41,East,100,5.0,12.0,38,0.00,,,0.00,Wunderground PWS Mod,2013-11-14 16:20:00,
2013-11-14 11:24:00,48.0,24.2,30.41,South,189,0.0,8.0,39,0.00,,,0.00,Wunderground PWS Mod,2013-11-14 16:24:00,
2013-11-14 11:25:00,49.2,24.6,30.41,East,100,5.0,12.0,38,0.00,,,0.00,Wunderground PWS Mod,2013-11-14 16:25:00,
2013-11-14 11:29:00,48.9,25.0,30.41,WSW,258,4.0,8.0,39,0.00,,,0.00,Wunderground PWS Mod,2013-11-14 16:29:00,
2013-11-14 11:30:00,49.2,24.6,30.41,East,100,5.0,12.0,38,0.00,,,0.00,Wunderground PWS Mod,2013-11-14 16:30:00,
2013-11-14 11:35:00,49.2,24.6,30.41,East,100,5.0,12.0,38,0.00,,,0.00,Wunderground PWS Mod,2013-11-14 16:35:00,
2013-11-14 11:39:00,49.8,24.5,30.41,WSW,248,1.0,8.0,37,0.00,,,0.00,Wunderground PWS Mod,2013-11-14 16:39:00,
2013-11-14 11:40:00,49.2,24.6,30.41,East,100,5.0,12.0,38,0.00,,,0.00,Wunderground PWS Mod,2013-11-14 16:40:00,
2013-11-14 11:45:00,50.8,24.8,30.39,East,100,4.0,11.0,36,0.00,,,0.00,Wunderground PWS Mod,2013-11-14 16:45:00,
2013-11-14 11:49:00,50.2,22.9,30.40,WSW,243,5.0,8.0,34,0.00,,,0.00,Wunderground PWS Mod,2013-11-14 16:49:00,
2013-11-14 11:50:00,50.8,24.8,30.39,East,100,4.0,11.0,36,0.00,,,0.00,Wunderground PWS Mod,2013-11-14 16:50:00,
2013-11-14 11:55:00,50.8,24.8,30.39,East,100,4.0,11.0,36,0.00,,,0.00,Wunderground PWS Mod,2013-11-14 16:55:00,
2013-11-14 11:59:00,50.5,24.5,30.40,South,173,6.0,8.0,36,0.00,,,0.00,Wunderground PWS Mod,2013-11-14 16:59:00,
2013-11-14 12:00:00,50.8,24.8,30.39,East,100,4.0,11.0,36,0.00,,,0.00,Wunderground PWS Mod,2013-11-14 17:00:00,
2013-11-14 12:05:00,50.8,24.8,30.39,East,100,4.0,11.0,36,0.00,,,0.00,Wunderground PWS Mod,2013-11-14 17:05:00,
2013-11-14 12:09:00,51.3,23.8,30.39,SW,231,4.0,8.0,34,0.00,,,0.00,Wunderground PWS Mod,2013-11-14 17:09:00,
2013-11-14 12:10:00,50.8,24.8,30.39,East,100,4.0,11.0,36,0.00,,,0.00,Wunderground PWS Mod,2013-11-14 17:10:00,
2013-11-14 12:15:00,52.5,24.2,30.37,East,100,4.0,11.0,33,0.00,,,0.00,Wunderground PWS Mod,2013-11-14 17:15:00,
2013-11-14 12:19:00,51.4,24.6,30.38,WSW,254,4.0,9.0,35,0.00,,,0.00,Wunderground PWS Mod,2013-11-14 17:19:00,
2013-11-14 12:20:00,52.5,24.2,30.37,East,100,4.0,11.0,33,0.00,,,0.00,Wunderground PWS Mod,2013-11-14 17:20:00,
2013-11-14 12:25:00,52.5,24.2,30.37,East,100,4.0,11.0,33,0.00,,,0.00,Wunderground PWS Mod,2013-11-14 17:25:00,
2013-11-14 12:29:00,52.3,24.7,30.38,WSW,250,10.0,10.0,34,0.00,,,0.00,Wunderground PWS Mod,2013-11-14 17:29:00,
2013-11-14 12:30:00,52.5,24.2,30.37,East,100,4.0,11.0,33,0.00,,,0.00,Wunderground PWS Mod,2013-11-14 17:30:00,
2013-11-14 12:35:00,52.5,24.2,30.37,East,100,4.0,11.0,33,0.00,,,0.00,Wunderground PWS Mod,2013-11-14 17:35:00,
2013-11-14 12:39:00,52.8,25.9,30.37,West,259,7.0,10.0,35,0.00,,,0.00,Wunderground PWS Mod,2013-11-14 17:39:00,
2013-11-14 12:40:00,52.5,24.2,30.37,East,100,4.0,11.0,33,0.00,,,0.00,Wunderground PWS Mod,2013-11-14 17:40:00,
2013-11-14 12:45:00,53.3,24.2,30.35,ESE,110,5.0,12.0,32,0.00,,,0.00,Wunderground PWS Mod,2013-11-14 17:45:00,
2013-11-14 12:49:00,53.2,23.3,30.36,West,265,6.0,10.0,31,0.00,,,0.00,Wunderground PWS Mod,2013-11-14 17:49:00,
2013-11-14 12:50:00,53.3,24.2,30.35,ESE,110,5.0,12.0,32,0.00,,,0.00,Wunderground PWS Mod,2013-11-14 17:50:00,
2013-11-14 12:55:00,53.3,24.2,30.35,ESE,110,5.0,12.0,32,0.00,,,0.00,Wunderground PWS Mod,2013-11-14 17:55:00,
2013-11-14 12:59:00,53.2,24.1,30.36,SE,141,5.0,8.0,32,0.00,,,0.00,Wunderground PWS Mod,2013-11-14 17:59:00,
2013-11-14 13:00:00,53.3,24.2,30.35,ESE,110,5.0,12.0,32,0.00,,,0.00,Wunderground PWS Mod,2013-11-14 18:00:00,
2013-11-14 13:05:00,53.3,24.2,30.35,ESE,110,5.0,12.0,32,0.00,,,0.00,Wunderground PWS Mod,2013-11-14 18:05:00,
2013-11-14 13:09:00,53.6,24.4,30.36,SW,229,1.0,8.0,32,0.00,,,0.00,Wunderground PWS Mod,2013-11-14 18:09:00,
2013-11-14 13:10:00,53.3,24.2,30.35,ESE,110,5.0,12.0,32,0.00,,,0.00,Wunderground PWS Mod,2013-11-14 18:10:00,
2013-11-14 13:14:00,54.2,24.2,30.36,West,267,6.0,8.0,31,0.00,,,0.00,Wunderground PWS Mod,2013-11-14 18:14:00,
2013-11-14 13:15:00,54.5,25.2,30.34,East,80,4.0,11.0,32,0.00,,,0.00,Wunderground PWS Mod,2013-11-14 18:15:00,
2013-11-14 13:20:00,54.5,25.2,30.34,East,80,4.0,11.0,32,0.00,,,0.00,Wunderground PWS Mod,2013-11-14 18:20:00,
2013-11-14 13:24:00,54.1,23.3,30.34,South,178,3.0,8.0,30,0.00,,,0.00,Wunderground PWS Mod,2013-11-14 18:24:00,
2013-11-14 13:25:00,54.5,25.2,30.34,East,80,4.0,11.0,32,0.00,,,0.00,Wunderground PWS Mod,2013-11-14 18:25:00,
2013-11-14 13:30:00,54.5,25.2,30.34,East,80,4.0,11.0,32,0.00,,,0.00,Wunderground PWS Mod,2013-11-14 18:30:00,
2013-11-14 13:34:00,54.8,23.1,30.34,SSW,199,3.0,8.0,29,0.00,,,0.00,Wunderground PWS Mod,2013-11-14 18:34:00,
2013-11-14 13:35:00,54.5,25.2,30.34,East,80,4.0,11.0,32,0.00,,,0.00,Wunderground PWS Mod,2013-11-14 18:35:00,
2013-11-14 13:40:00,54.5,25.2,30.34,East,80,4.0,11.0,32,0.00,,,0.00,Wunderground PWS Mod,2013-11-14 18:40:00,
2013-11-14 13:44:00,55.1,22.5,30.34,SSW,206,3.0,8.0,28,0.00,,,0.00,Wunderground PWS Mod,2013-11-14 18:44:00,
2013-11-14 13:45:00,55.7,23.1,30.33,East,90,4.0,10.0,28,0.00,,,0.00,Wunderground PWS Mod,2013-11-14 18:45:00,
2013-11-14 13:50:00,55.7,23.1,30.33,East,90,4.0,10.0,28,0.00,,,0.00,Wunderground PWS Mod,2013-11-14 18:50:00,
2013-11-14 13:54:00,55.4,23.6,30.33,SW,216,5.0,8.0,29,0.00,,,0.00,Wunderground PWS Mod,2013-11-14 18:54:00,
2013-11-14 13:55:00,55.7,23.1,30.33,East,90,4.0,10.0,28,0.00,,,0.00,Wunderground PWS Mod,2013-11-14 18:55:00,
2013-11-14 14:00:00,55.7,23.1,30.33,East,90,4.0,10.0,28,0.00,,,0.00,Wunderground PWS Mod,2013-11-14 19:00:00,
2013-11-14 14:04:00,55.7,23.1,30.33,West,268,7.0,8.0,28,0.00,,,0.00,Wunderground PWS Mod,2013-11-14 19:04:00,
2013-11-14 14:05:00,55.7,23.1,30.33,East,90,4.0,10.0,28,0.00,,,0.00,Wunderground PWS Mod,2013-11-14 19:05:00,
2013-11-14 14:10:00,55.7,23.1,30.33,East,90,4.0,10.0,28,0.00,,,0.00,Wunderground PWS Mod,2013-11-14 19:10:00,
2013-11-14 14:14:00,55.7,22.2,30.33,WSW,257,3.0,8.0,27,0.00,,,0.00,Wunderground PWS Mod,2013-11-14 19:14:00,
2013-11-14 14:15:00,55.9,23.2,30.32,East,100,5.0,11.0,28,0.00,,,0.00,Wunderground PWS Mod,2013-11-14 19:15:00,
2013-11-14 14:20:00,55.9,23.2,30.32,East,100,5.0,11.0,28,0.00,,,0.00,Wunderground PWS Mod,2013-11-14 19:20:00,
2013-11-14 14:24:00,55.7,23.1,30.32,SW,225,5.0,8.0,28,0.00,,,0.00,Wunderground PWS Mod,2013-11-14 19:24:00,
2013-11-14 14:25:00,55.9,23.2,30.32,East,100,5.0,11.0,28,0.00,,,0.00,Wunderground PWS Mod,2013-11-14 19:25:00,
2013-11-14 14:30:00,55.9,23.2,30.32,East,100,5.0,11.0,28,0.00,,,0.00,Wunderground PWS Mod,2013-11-14 19:30:00,
2013-11-14 14:34:00,56.0,22.4,30.32,SSE,153,4.0,8.0,27,0.00,,,0.00,Wunderground PWS Mod,2013-11-14 19:34:00,
2013-11-14 14:35:00,55.9,23.2,30.32,East,100,5.0,11.0,28,0.00,,,0.00,Wunderground PWS Mod,2013-11-14 19:35:00,
2013-11-14 14:40:00,55.9,23.2,30.32,East,100,5.0,11.0,28,0.00,,,0.00,Wunderground PWS Mod,2013-11-14 19:40:00,
2013-11-14 14:44:00,55.7,23.1,30.32,WSW,240,3.0,8.0,28,0.00,,,0.00,Wunderground PWS Mod,2013-11-14 19:44:00,
2013-11-14 14:45:00,56.6,23.8,30.31,East,80,3.0,12.0,28,0.00,,,0.00,Wunderground PWS Mod,2013-11-14 19:45:00,
2013-11-14 14:50:00,56.6,23.8,30.31,East,80,3.0,12.0,28,0.00,,,0.00,Wunderground PWS Mod,2013-11-14 19:50:00,
2013-11-14 14:54:00,56.6,23.8,30.31,WSW,250,3.0,8.0,28,0.00,,,0.00,Wunderground PWS Mod,2013-11-14 19:54:00,
2013-11-14 14:55:00,56.6,23.8,30.31,East,80,3.0,12.0,28,0.00,,,0.00,Wunderground PWS Mod,2013-11-14 19:55:00,
2013-11-14 15:00:00,56.6,23.8,30.31,East,80,3.0,12.0,28,0.00,,,0.00,Wunderground PWS Mod,2013-11-14 20:00:00,
2013-11-14 15:04:00,56.6,23.0,30.31,SSE,164,1.0,8.0,27,0.00,,,0.00,Wunderground PWS Mod,2013-11-14 20:04:00,
2013-11-14 15:05:00,56.6,23.8,30.31,East,80,3.0,12.0,28,0.00,,,0.00,Wunderground PWS Mod,2013-11-14 20:05:00,
2013-11-14 15:10:00,56.6,23.8,30.31,East,80,3.0,12.0,28,0.00,,,0.00,Wunderground PWS Mod,2013-11-14 20:10:00,
2013-11-14 15:14:00,56.6,23.0,30.31,SW,218,3.0,8.0,27,0.00,,,0.00,Wunderground PWS Mod,2013-11-14 20:14:00,
2013-11-14 15:15:00,56.6,24.7,30.30,East,90,3.0,9.0,29,0.00,,,0.00,Wunderground PWS Mod,2013-11-14 20:15:00,
2013-11-14 15:20:00,56.6,24.7,30.30,East,90,3.0,9.0,29,0.00,,,0.00,Wunderground PWS Mod,2013-11-14 20:20:00,
2013-11-14 15:24:00,56.9,23.2,30.31,SSW,194,1.0,8.0,27,0.00,,,0.00,Wunderground PWS Mod,2013-11-14 20:24:00,
2013-11-14 15:25:00,56.6,24.7,30.30,East,90,3.0,9.0,29,0.00,,,0.00,Wunderground PWS Mod,2013-11-14 20:25:00,
2013-11-14 15:30:00,56.6,24.7,30.30,East,90,3.0,9.0,29,0.00,,,0.00,Wunderground PWS Mod,2013-11-14 20:30:00,
2013-11-14 15:34:00,56.6,23.8,30.30,South,190,2.0,8.0,28,0.00,,,0.00,Wunderground PWS Mod,2013-11-14 20:34:00,
2013-11-14 15:35:00,56.6,24.7,30.30,East,90,3.0,9.0,29,0.00,,,0.00,Wunderground PWS Mod,2013-11-14 20:35:00,
2013-11-14 15:40:00,56.6,24.7,30.30,East,90,3.0,9.0,29,0.00,,,0.00,Wunderground PWS Mod,2013-11-14 20:40:00,
2013-11-14 15:44:00,56.5,23.7,30.30,SW,214,3.0,8.0,28,0.00,,,0.00,Wunderground PWS Mod,2013-11-14 20:44:00,
2013-11-14 15:45:00,56.5,22.9,30.29,East,100,2.0,7.0,27,0.00,,,0.00,Wunderground PWS Mod,2013-11-14 20:45:00,
2013-11-14 15:50:00,56.5,22.9,30.29,East,100,2.0,7.0,27,0.00,,,0.00,Wunderground PWS Mod,2013-11-14 20:50:00,
2013-11-14 15:54:00,56.5,23.7,30.30,SW,219,1.0,8.0,28,0.00,,,0.00,Wunderground PWS Mod,2013-11-14 20:54:00,
2013-11-14 15:55:00,56.5,22.9,30.29,East,100,2.0,7.0,27,0.00,,,0.00,Wunderground PWS Mod,2013-11-14 20:55:00,
2013-11-14 15:59:00,56.5,23.7,30.30,SW,234,2.0,8.0,28,0.00,,,0.00,Wunderground PWS Mod,2013-11-14 20:59:00,
2013-11-14 16:00:00,56.5,22.9,30.29,East,100,2.0,7.0,27,0.00,,,0.00,Wunderground PWS Mod,2013-11-14 21:00:00,
2013-11-14 16:05:00,56.5,22.9,30.29,East,100,2.0,7.0,27,0.00,,,0.00,Wunderground PWS Mod,2013-11-14 21:05:00,
2013-11-14 16:09:00,56.6,23.8,30.29,SSW,211,3.0,8.0,28,0.00,,,0.00,Wunderground PWS Mod,2013-11-14 21:09:00,
2013-11-14 16:10:00,56.5,22.9,30.29,East,100,2.0,7.0,27,0.00,,,0.00,Wunderground PWS Mod,2013-11-14 21:10:00,
2013-11-14 16:15:00,55.7,22.2,30.29,East,90,1.0,5.0,27,0.00,,,0.00,Wunderground PWS Mod,2013-11-14 21:15:00,
2013-11-14 16:19:00,56.6,23.8,30.30,SW,219,1.0,8.0,28,0.00,,,0.00,Wunderground PWS Mod,2013-11-14 21:19:00,
2013-11-14 16:20:00,55.7,22.2,30.29,East,90,1.0,5.0,27,0.00,,,0.00,Wunderground PWS Mod,2013-11-14 21:20:00,
2013-11-14 16:25:00,55.7,22.2,30.29,East,90,1.0,5.0,27,0.00,,,0.00,Wunderground PWS Mod,2013-11-14 21:25:00,
2013-11-14 16:29:00,56.0,22.4,30.30,SSW,213,0.0,8.0,27,0.00,,,0.00,Wunderground PWS Mod,2013-11-14 21:29:00,
2013-11-14 16:30:00,55.7,22.2,30.29,East,90,1.0,5.0,27,0.00,,,0.00,Wunderground PWS Mod,2013-11-14 21:30:00,
2013-11-14 16:35:00,55.7,22.2,30.29,East,90,1.0,5.0,27,0.00,,,0.00,Wunderground PWS Mod,2013-11-14 21:35:00,
2013-11-14 16:39:00,55.4,22.8,30.29,SSW,211,0.0,8.0,28,0.00,,,0.00,Wunderground PWS Mod,2013-11-14 21:39:00,
2013-11-14 16:40:00,55.7,22.2,30.29,East,90,1.0,5.0,27,0.00,,,0.00,Wunderground PWS Mod,2013-11-14 21:40:00,
2013-11-14 16:45:00,52.3,21.7,30.28,East,90,0.0,3.0,30,0.00,,,0.00,Wunderground PWS Mod,2013-11-14 21:45:00,
2013-11-14 16:49:00,54.1,22.5,30.29,SSW,211,0.0,8.0,29,0.00,,,0.00,Wunderground PWS Mod,2013-11-14 21:49:00,
2013-11-14 16:50:00,52.3,21.7,30.28,East,90,0.0,3.0,30,0.00,,,0.00,Wunderground PWS Mod,2013-11-14 21:50:00,
2013-11-14 16:55:00,52.3,21.7,30.28,East,90,0.0,3.0,30,0.00,,,0.00,Wunderground PWS Mod,2013-11-14 21:55:00,
2013-11-14 16:59:00,52.8,22.2,30.29,SSW,211,0.0,8.0,30,0.00,,,0.00,Wunderground PWS Mod,2013-11-14 21:59:00,
2013-11-14 17:00:00,52.3,21.7,30.28,East,90,0.0,3.0,30,0.00,,,0.00,Wunderground PWS Mod,2013-11-14 22:00:00,
2013-11-14 17:05:00,52.3,21.7,30.28,East,90,0.0,3.0,30,0.00,,,0.00,Wunderground PWS Mod,2013-11-14 22:05:00,
2013-11-14 17:09:00,51.3,22.4,30.29,SSW,211,0.0,8.0,32,0.00,,,0.00,Wunderground PWS Mod,2013-11-14 22:09:00,
2013-11-14 17:10:00,52.3,21.7,30.28,East,90,0.0,3.0,30,0.00,,,0.00,Wunderground PWS Mod,2013-11-14 22:10:00,
2013-11-14 17:15:00,49.1,22.6,30.29,East,90,0.0,1.0,35,0.00,,,0.00,Wunderground PWS Mod,2013-11-14 22:15:00,
2013-11-14 17:19:00,50.4,23.1,30.29,SSW,211,0.0,8.0,34,0.00,,,0.00,Wunderground PWS Mod,2013-11-14 22:19:00,
2013-11-14 17:20:00,49.1,22.6,30.29,East,90,0.0,1.0,35,0.00,,,0.00,Wunderground PWS Mod,2013-11-14 22:20:00,
2013-11-14 17:25:00,49.1,22.6,30.29,East,90,0.0,1.0,35,0.00,,,0.00,Wunderground PWS Mod,2013-11-14 22:25:00,
2013-11-14 17:29:00,49.5,22.9,30.29,SSW,211,0.0,8.0,35,0.00,,,0.00,Wunderground PWS Mod,2013-11-14 22:29:00,
2013-11-14 17:30:00,49.1,22.6,30.29,East,90,0.0,1.0,35,0.00,,,0.00,Wunderground PWS Mod,2013-11-14 22:30:00,
2013-11-14 17:34:00,48.9,21.7,30.29,SSW,211,0.0,8.0,34,0.00,,,0.00,Wunderground PWS Mod,2013-11-14 22:34:00,
2013-11-14 17:35:00,49.1,22.6,30.29,East,90,0.0,1.0,35,0.00,,,0.00,Wunderground PWS Mod,2013-11-14 22:35:00,
2013-11-14 17:39:00,48.2,23.7,30.29,SSW,211,0.0,8.0,38,0.00,,,0.00,Wunderground PWS Mod,2013-11-14 22:39:00,
2013-11-14 17:40:00,49.1,22.6,30.29,East,90,0.0,1.0,35,0.00,,,0.00,Wunderground PWS Mod,2013-11-14 22:40:00,
2013-11-14 17:45:00,44.9,22.6,30.30,N/A,-327680,0.0,0.0,41,0.00,,,0.00,Wunderground PWS Mod,2013-11-14 22:45:00,
2013-11-14 17:49:00,46.7,23.0,30.30,SSW,211,0.0,8.0,39,0.00,,,0.00,Wunderground PWS Mod,2013-11-14 22:49:00,
2013-11-14 17:50:00,44.9,22.6,30.30,N/A,-327680,0.0,0.0,41,0.00,,,0.00,Wunderground PWS Mod,2013-11-14 22:50:00,
2013-11-14 17:55:00,44.9,22.6,30.30,N/A,-327680,0.0,0.0,41,0.00,,,0.00,Wunderground PWS Mod,2013-11-14 22:55:00,
2013-11-14 17:59:00,45.4,22.5,30.30,SSW,211,0.0,8.0,40,0.00,,,0.00,Wunderground PWS Mod,2013-11-14 22:59:00,
2013-11-14 18:00:00,44.9,22.6,30.30,N/A,-327680,0.0,0.0,41,0.00,,,0.00,Wunderground PWS Mod,2013-11-14 23:00:00,
2013-11-14 18:05:00,44.9,22.6,30.30,N/A,-327680,0.0,0.0,41,0.00,,,0.00,Wunderground PWS Mod,2013-11-14 23:05:00,
2013-11-14 18:09:00,44.1,23.0,30.30,SSW,211,0.0,8.0,43,0.00,,,0.00,Wunderground PWS Mod,2013-11-14 23:09:00,
2013-11-14 18:10:00,44.9,22.6,30.30,N/A,-327680,0.0,0.0,41,0.00,,,0.00,Wunderground PWS Mod,2013-11-14 23:10:00,
2013-11-14 18:15:00,41.8,22.0,30.31,N/A,-327680,0.0,0.0,45,0.00,,,0.00,Wunderground PWS Mod,2013-11-14 23:15:00,
2013-11-14 18:19:00,42.9,21.9,30.30,SSW,211,0.0,8.0,43,0.00,,,0.00,Wunderground PWS Mod,2013-11-14 23:19:00,
2013-11-14 18:20:00,41.8,22.0,30.31,N/A,-327680,0.0,0.0,45,0.00,,,0.00,Wunderground PWS Mod,2013-11-14 23:20:00,
2013-11-14 18:25:00,41.8,22.0,30.31,N/A,-327680,0.0,0.0,45,0.00,,,0.00,Wunderground PWS Mod,2013-11-14 23:25:00,
2013-11-14 18:29:00,41.9,21.5,30.30,SSW,211,0.0,8.0,44,0.00,,,0.00,Wunderground PWS Mod,2013-11-14 23:29:00,
2013-11-14 18:30:00,41.8,22.0,30.31,N/A,-327680,0.0,0.0,45,0.00,,,0.00,Wunderground PWS Mod,2013-11-14 23:30:00,
2013-11-14 18:35:00,41.8,22.0,30.31,N/A,-327680,0.0,0.0,45,0.00,,,0.00,Wunderground PWS Mod,2013-11-14 23:35:00,
2013-11-14 18:39:00,41.9,22.6,30.31,SSW,211,0.0,8.0,46,0.00,,,0.00,Wunderground PWS Mod,2013-11-14 23:39:00,
2013-11-14 18:40:00,41.8,22.0,30.31,N/A,-327680,0.0,0.0,45,0.00,,,0.00,Wunderground PWS Mod,2013-11-14 23:40:00,
2013-11-14 18:44:00,41.6,21.8,30.31,SSW,211,0.0,8.0,45,0.00,,,0.00,Wunderground PWS Mod,2013-11-14 23:44:00,
2013-11-14 18:45:00,40.5,23.3,30.31,N/A,-327680,0.0,0.0,50,0.00,,,0.00,Wunderground PWS Mod,2013-11-14 23:45:00,
2013-11-14 18:50:00,40.5,23.3,30.31,N/A,-327680,0.0,0.0,50,0.00,,,0.00,Wunderground PWS Mod,2013-11-14 23:50:00,
2013-11-14 18:54:00,41.1,22.9,30.31,SSW,211,0.0,8.0,48,0.00,,,0.00,Wunderground PWS Mod,2013-11-14 23:54:00,
2013-11-14 18:55:00,40.5,23.3,30.31,N/A,-327680,0.0,0.0,50,0.00,,,0.00,Wunderground PWS Mod,2013-11-14 23:55:00,
2013-11-14 19:00:00,40.5,23.3,30.31,N/A,-327680,0.0,0.0,50,0.00,,,0.00,Wunderground PWS Mod,2013-11-15 00:00:00,
2013-11-14 19:04:00,40.5,23.3,30.31,SSW,211,0.0,8.0,50,0.00,,,0.00,Wunderground PWS Mod,2013-11-15 00:04:00,
2013-11-14 19:05:00,40.5,23.3,30.31,N/A,-327680,0.0,0.0,50,0.00,,,0.00,Wunderground PWS Mod,2013-11-15 00:05:00,
2013-11-14 19:10:00,40.5,23.3,30.31,N/A,-327680,0.0,0.0,50,0.00,,,0.00,Wunderground PWS Mod,2013-11-15 00:10:00,
2013-11-14 19:14:00,39.9,22.7,30.31,SSW,211,0.0,8.0,50,0.00,,,0.00,Wunderground PWS Mod,2013-11-15 00:14:00,
2013-11-14 19:15:00,39.9,23.2,30.31,N/A,-327680,0.0,0.0,51,0.00,,,0.00,Wunderground PWS Mod,2013-11-15 00:15:00,
2013-11-14 19:19:00,39.9,22.7,30.31,SSW,211,0.0,8.0,50,0.00,,,0.00,Wunderground PWS Mod,2013-11-15 00:19:00,
2013-11-14 19:20:00,39.9,23.2,30.31,N/A,-327680,0.0,0.0,51,0.00,,,0.00,Wunderground PWS Mod,2013-11-15 00:20:00,
2013-11-14 19:25:00,39.9,23.2,30.31,N/A,-327680,0.0,0.0,51,0.00,,,0.00,Wunderground PWS Mod,2013-11-15 00:25:00,
2013-11-14 19:29:00,39.9,23.2,30.31,SSW,211,0.0,8.0,51,0.00,,,0.00,Wunderground PWS Mod,2013-11-15 00:29:00,
2013-11-14 19:30:00,39.9,23.2,30.31,N/A,-327680,0.0,0.0,51,0.00,,,0.00,Wunderground PWS Mod,2013-11-15 00:30:00,
2013-11-14 19:35:00,39.9,23.2,30.31,N/A,-327680,0.0,0.0,51,0.00,,,0.00,Wunderground PWS Mod,2013-11-15 00:35:00,
2013-11-14 19:39:00,39.5,23.3,30.31,SSW,211,0.0,8.0,52,0.00,,,0.00,Wunderground PWS Mod,2013-11-15 00:39:00,
2013-11-14 19:40:00,39.9,23.2,30.31,N/A,-327680,0.0,0.0,51,0.00,,,0.00,Wunderground PWS Mod,2013-11-15 00:40:00,
2013-11-14 19:45:00,38.2,23.0,30.29,N/A,-327680,0.0,0.0,54,0.00,,,0.00,Wunderground PWS Mod,2013-11-15 00:45:00,
2013-11-14 19:49:00,38.6,23.4,30.30,SSW,211,0.0,8.0,54,0.00,,,0.00,Wunderground PWS Mod,2013-11-15 00:49:00,
2013-11-14 19:50:00,38.2,23.0,30.29,N/A,-327680,0.0,0.0,54,0.00,,,0.00,Wunderground PWS Mod,2013-11-15 00:50:00,
2013-11-14 19:55:00,38.2,23.0,30.29,N/A,-327680,0.0,0.0,54,0.00,,,0.00,Wunderground PWS Mod,2013-11-15 00:55:00,
2013-11-14 19:59:00,38.3,23.5,30.30,SSW,211,0.0,8.0,55,0.00,,,0.00,Wunderground PWS Mod,2013-11-15 00:59:00,
2013-11-14 20:00:00,38.2,23.0,30.29,N/A,-327680,0.0,0.0,54,0.00,,,0.00,Wunderground PWS Mod,2013-11-15 01:00:00,
2013-11-14 20:05:00,38.2,23.0,30.29,N/A,-327680,0.0,0.0,54,0.00,,,0.00,Wunderground PWS Mod,2013-11-15 01:05:00,
2013-11-14 20:09:00,37.8,23.1,30.29,SSW,211,0.0,8.0,55,0.00,,,0.00,Wunderground PWS Mod,2013-11-15 01:09:00,
2013-11-14 20:10:00,38.2,23.0,30.29,N/A,-327680,0.0,0.0,54,0.00,,,0.00,Wunderground PWS Mod,2013-11-15 01:10:00,
2013-11-14 20:15:00,36.2,22.4,30.29,N/A,-327680,0.0,0.0,57,0.00,,,0.00,Wunderground PWS Mod,2013-11-15 01:15:00,
2013-11-14 20:19:00,37.0,22.7,30.29,SSW,211,0.0,8.0,56,0.00,,,0.00,Wunderground PWS Mod,2013-11-15 01:19:00,
2013-11-14 20:20:00,36.2,22.4,30.29,N/A,-327680,0.0,0.0,57,0.00,,,0.00,Wunderground PWS Mod,2013-11-15 01:20:00,
2013-11-14 20:24:00,36.8,22.6,30.29,SSW,211,0.0,8.0,56,0.00,,,0.00,Wunderground PWS Mod,2013-11-15 01:24:00,
2013-11-14 20:25:00,36.2,22.4,30.29,N/A,-327680,0.0,0.0,57,0.00,,,0.00,Wunderground PWS Mod,2013-11-15 01:25:00,
2013-11-14 20:30:00,36.2,22.4,30.29,N/A,-327680,0.0,0.0,57,0.00,,,0.00,Wunderground PWS Mod,2013-11-15 01:30:00,
2013-11-14 20:34:00,36.2,22.4,30.29,SSW,211,0.0,8.0,57,0.00,,,0.00,Wunderground PWS Mod,2013-11-15 01:34:00,
2013-11-14 20:35:00,36.2,22.4,30.29,N/A,-327680,0.0,0.0,57,0.00,,,0.00,Wunderground PWS Mod,2013-11-15 01:35:00,
2013-11-14 20:40:00,36.2,22.4,30.29,N/A,-327680,0.0,0.0,57,0.00,,,0.00,Wunderground PWS Mod,2013-11-15 01:40:00,
2013-11-14 20:44:00,37.2,22.9,30.29,SSW,211,0.0,8.0,56,0.00,,,0.00,Wunderground PWS Mod,2013-11-15 01:44:00,
2013-11-14 20:45:00,37.0,22.3,30.29,East,90,0.0,1.0,55,0.00,,,0.00,Wunderground PWS Mod,2013-11-15 01:45:00,
2013-11-14 20:50:00,37.0,22.3,30.29,East,90,0.0,1.0,55,0.00,,,0.00,Wunderground PWS Mod,2013-11-15 01:50:00,
2013-11-14 20:54:00,37.5,22.8,30.28,SSW,211,0.0,8.0,55,0.00,,,0.00,Wunderground PWS Mod,2013-11-15 01:54:00,
2013-11-14 20:55:00,37.0,22.3,30.29,East,90,0.0,1.0,55,0.00,,,0.00,Wunderground PWS Mod,2013-11-15 01:55:00,
2013-11-14 21:00:00,37.0,22.3,30.29,East,90,0.0,1.0,55,0.00,,,0.00,Wunderground PWS Mod,2013-11-15 02:00:00,
2013-11-14 21:04:00,36.9,22.2,30.29,SSW,211,0.0,8.0,55,0.00,,,0.00,Wunderground PWS Mod,2013-11-15 02:04:00,
2013-11-14 21:05:00,37.0,22.3,30.29,East,90,0.0,1.0,55,0.00,,,0.00,Wunderground PWS Mod,2013-11-15 02:05:00,
2013-11-14 21:10:00,37.0,22.3,30.29,East,90,0.0,1.0,55,0.00,,,0.00,Wunderground PWS Mod,2013-11-15 02:10:00,
2013-11-14 21:14:00,36.5,22.7,30.29,SSW,211,0.0,8.0,57,0.00,,,0.00,Wunderground PWS Mod,2013-11-15 02:14:00,
2013-11-14 21:15:00,35.5,22.2,30.30,N/A,-327680,0.0,0.0,58,0.00,,,0.00,Wunderground PWS Mod,2013-11-15 02:15:00,
2013-11-14 21:20:00,35.5,22.2,30.30,N/A,-327680,0.0,0.0,58,0.00,,,0.00,Wunderground PWS Mod,2013-11-15 02:20:00,
2013-11-14 21:24:00,35.9,22.5,30.29,SSW,211,0.0,8.0,58,0.00,,,0.00,Wunderground PWS Mod,2013-11-15 02:24:00,
2013-11-14 21:25:00,35.5,22.2,30.30,N/A,-327680,0.0,0.0,58,0.00,,,0.00,Wunderground PWS Mod,2013-11-15 02:25:00,
2013-11-14 21:30:00,35.5,22.2,30.30,N/A,-327680,0.0,0.0,58,0.00,,,0.00,Wunderground PWS Mod,2013-11-15 02:30:00,
2013-11-14 21:34:00,35.3,22.0,30.30,SSW,211,0.0,8.0,58,0.00,,,0.00,Wunderground PWS Mod,2013-11-15 02:34:00,
2013-11-14 21:35:00,35.5,22.2,30.30,N/A,-327680,0.0,0.0,58,0.00,,,0.00,Wunderground PWS Mod,2013-11-15 02:35:00,
2013-11-14 21:39:00,34.9,22.0,30.30,SSW,211,0.0,8.0,59,0.00,,,0.00,Wunderground PWS Mod,2013-11-15 02:39:00,
2013-11-14 21:40:00,35.5,22.2,30.30,N/A,-327680,0.0,0.0,58,0.00,,,0.00,Wunderground PWS Mod,2013-11-15 02:40:00,
2013-11-14 21:45:00,33.7,22.4,30.30,N/A,-327680,0.0,0.0,63,0.00,,,0.00,Wunderground PWS Mod,2013-11-15 02:45:00,
2013-11-14 21:49:00,34.1,22.0,30.30,SSW,211,0.0,8.0,61,0.00,,,0.00,Wunderground PWS Mod,2013-11-15 02:49:00,
2013-11-14 21:50:00,33.7,22.4,30.30,N/A,-327680,0.0,0.0,63,0.00,,,0.00,Wunderground PWS Mod,2013-11-15 02:50:00,
2013-11-14 21:55:00,33.7,22.4,30.30,N/A,-327680,0.0,0.0,63,0.00,,,0.00,Wunderground PWS Mod,2013-11-15 02:55:00,
2013-11-14 21:59:00,33.7,22.1,30.30,SSW,211,0.0,8.0,62,0.00,,,0.00,Wunderground PWS Mod,2013-11-15 02:59:00,
2013-11-14 22:00:00,33.7,22.4,30.30,N/A,-327680,0.0,0.0,63,0.00,,,0.00,Wunderground PWS Mod,2013-11-15 03:00:00,
2013-11-14 22:04:00,33.7,22.1,30.30,SSW,211,0.0,8.0,62,0.00,,,0.00,Wunderground PWS Mod,2013-11-15 03:04:00,
2013-11-14 22:05:00,33.7,22.4,30.30,N/A,-327680,0.0,0.0,63,0.00,,,0.00,Wunderground PWS Mod,2013-11-15 03:05:00,
2013-11-14 22:10:00,33.7,22.4,30.30,N/A,-327680,0.0,0.0,63,0.00,,,0.00,Wunderground PWS Mod,2013-11-15 03:10:00,
2013-11-14 22:14:00,33.4,21.8,30.30,SSW,211,0.0,8.0,62,0.00,,,0.00,Wunderground PWS Mod,2013-11-15 03:14:00,
2013-11-14 22:15:00,32.4,21.6,30.29,N/A,-327680,0.0,0.0,64,0.00,,,0.00,Wunderground PWS Mod,2013-11-15 03:15:00,
2013-11-14 22:19:00,33.1,21.9,30.29,SSW,211,0.0,8.0,63,0.00,,,0.00,Wunderground PWS Mod,2013-11-15 03:19:00,
2013-11-14 22:20:00,32.4,21.6,30.29,N/A,-327680,0.0,0.0,64,0.00,,,0.00,Wunderground PWS Mod,2013-11-15 03:20:00,
2013-11-14 22:25:00,32.4,21.6,30.29,N/A,-327680,0.0,0.0,64,0.00,,,0.00,Wunderground PWS Mod,2013-11-15 03:25:00,
2013-11-14 22:29:00,32.7,22.2,30.29,SSW,211,0.0,8.0,65,0.00,,,0.00,Wunderground PWS Mod,2013-11-15 03:29:00,
2013-11-14 22:30:00,32.4,21.6,30.29,N/A,-327680,0.0,0.0,64,0.00,,,0.00,Wunderground PWS Mod,2013-11-15 03:30:00,
2013-11-14 22:35:00,32.4,21.6,30.29,N/A,-327680,0.0,0.0,64,0.00,,,0.00,Wunderground PWS Mod,2013-11-15 03:35:00,
2013-11-14 22:39:00,32.1,21.7,30.29,SSW,211,0.0,8.0,65,0.00,,,0.00,Wunderground PWS Mod,2013-11-15 03:39:00,
2013-11-14 22:40:00,32.4,21.6,30.29,N/A,-327680,0.0,0.0,64,0.00,,,0.00,Wunderground PWS Mod,2013-11-15 03:40:00,
2013-11-14 22:45:00,31.3,23.0,30.30,N/A,-327680,0.0,0.0,71,0.00,,,0.00,Wunderground PWS Mod,2013-11-15 03:45:00,
2013-11-14 22:49:00,31.6,20.8,30.29,SSW,211,0.0,8.0,64,0.00,,,0.00,Wunderground PWS Mod,2013-11-15 03:49:00,
2013-11-14 22:50:00,31.3,23.0,30.30,N/A,-327680,0.0,0.0,71,0.00,,,0.00,Wunderground PWS Mod,2013-11-15 03:50:00,
2013-11-14 22:54:00,31.5,22.1,30.29,SSW,211,0.0,8.0,68,0.00,,,0.00,Wunderground PWS Mod,2013-11-15 03:54:00,
2013-11-14 22:55:00,31.3,23.0,30.30,N/A,-327680,0.0,0.0,71,0.00,,,0.00,Wunderground PWS Mod,2013-11-15 03:55:00,
2013-11-14 23:00:00,31.3,23.0,30.30,N/A,-327680,0.0,0.0,71,0.00,,,0.00,Wunderground PWS Mod,2013-11-15 04:00:00,
2013-11-14 23:04:00,31.2,22.9,30.30,SSW,211,0.0,8.0,71,0.00,,,0.00,Wunderground PWS Mod,2013-11-15 04:04:00,
2013-11-14 23:05:00,31.3,23.0,30.30,N/A,-327680,0.0,0.0,71,0.00,,,0.00,Wunderground PWS Mod,2013-11-15 04:05:00,
2013-11-14 23:09:00,30.9,22.6,30.30,SSW,211,0.0,8.0,71,0.00,,,0.00,Wunderground PWS Mod,2013-11-15 04:09:00,
2013-11-14 23:10:00,31.3,23.0,30.30,N/A,-327680,0.0,0.0,71,0.00,,,0.00,Wunderground PWS Mod,2013-11-15 04:10:00,
2013-11-14 23:15:00,30.7,22.4,30.28,N/A,-327680,0.0,0.0,71,0.00,,,0.00,Wunderground PWS Mod,2013-11-15 04:15:00,
2013-11-14 23:19:00,30.6,22.0,30.29,SSW,211,0.0,8.0,70,0.00,,,0.00,Wunderground PWS Mod,2013-11-15 04:19:00,
2013-11-14 23:20:00,30.7,22.4,30.28,N/A,-327680,0.0,0.0,71,0.00,,,0.00,Wunderground PWS Mod,2013-11-15 04:20:00,
2013-11-14 23:25:00,30.7,22.4,30.28,N/A,-327680,0.0,0.0,71,0.00,,,0.00,Wunderground PWS Mod,2013-11-15 04:25:00,
2013-11-14 23:29:00,30.6,22.3,30.29,SSW,211,0.0,8.0,71,0.00,,,0.00,Wunderground PWS Mod,2013-11-15 04:29:00,
2013-11-14 23:30:00,30.7,22.4,30.28,N/A,-327680,0.0,0.0,71,0.00,,,0.00,Wunderground PWS Mod,2013-11-15 04:30:00,
2013-11-14 23:35:00,30.7,22.4,30.28,N/A,-327680,0.0,0.0,71,0.00,,,0.00,Wunderground PWS Mod,2013-11-15 04:35:00,
2013-11-14 23:39:00,31.2,22.2,30.28,SSW,211,0.0,8.0,69,0.00,,,0.00,Wunderground PWS Mod,2013-11-15 04:39:00,
2013-11-14 23:40:00,30.7,22.4,30.28,N/A,-327680,0.0,0.0,71,0.00,,,0.00,Wunderground PWS Mod,2013-11-15 04:40:00,
2013-11-14 23:45:00,30.9,21.6,30.28,N/A,-327680,0.0,0.0,68,0.00,,,0.00,Wunderground PWS Mod,2013-11-15 04:45:00,
2013-11-14 23:49:00,31.3,22.3,30.28,SSW,211,0.0,8.0,69,0.00,,,0.00,Wunderground PWS Mod,2013-11-15 04:49:00,
2013-11-14 23:50:00,30.9,21.6,30.28,N/A,-327680,0.0,0.0,68,0.00,,,0.00,Wunderground PWS Mod,2013-11-15 04:50:00,
2013-11-14 23:55:00,30.9,21.6,30.28,N/A,-327680,0.0,0.0,68,0.00,,,0.00,Wunderground PWS Mod,2013-11-15 04:55:00,
2013-11-14 23:59:00,31.0,21.3,30.28,SSW,211,0.0,8.0,67,0.00,,,0.00,Wunderground PWS Mod,2013-11-15 04:59:00,